Salem, New Hampshire
Current Conditions -  °F | °C
As of 10:54 PM on Saturday 25 Oct 2014 (Local Time) from KLWM Reporting Station
Broken Clouds Broken Clouds  
Wind Chill: 53°   Ceiling: 9000
Heat Index: 53°   Visibility: 10mi
Dew Point: 45°   Wind: 6mph
Humidity: 74%   Direction: 230°SW
Pressure: 29.53"   Gusts: NA
Location:  42.79°N, 71.2°W
Report Text: KLWM 260254Z AUTO 23005KT 10SM SCT070 BKN090 BKN110 12/07 A2953 RMK AO2 SLP999 T01170072 58021
Loading
Personal Weather Stations






























Interactive Weather Map
Tropical Storm Tracking
New forecast layout! Learn more

10-Day Weather Forecast

Advertisements
Track Severe Weather on mobile